createdAt,value
2022-09-01T00:00:23.599Z,100905.69
2022-09-01T00:02:51.752Z,100906.00
2022-09-01T00:05:21.224Z,100905.13
2022-09-01T00:07:51.245Z,100904.75
2022-09-01T00:10:19.260Z,100893.44
2022-09-01T00:12:49.728Z,100900.06
2022-09-01T00:15:17.696Z,100897.38
2022-09-01T00:17:45.875Z,100908.72
2022-09-01T00:20:18.244Z,100899.91
2022-09-01T00:22:49.762Z,100904.88
2022-09-01T00:25:20.227Z,100913.00
2022-09-01T00:27:49.282Z,100915.31
2022-09-01T00:30:22.026Z,100908.75
2022-09-01T00:32:50.065Z,100905.44
2022-09-01T00:35:20.568Z,100911.69
2022-09-01T00:37:49.931Z,100908.66
2022-09-01T00:40:20.346Z,100909.66
2022-09-01T00:42:49.240Z,100908.78
2022-09-01T00:45:19.280Z,100902.50
2022-09-01T00:47:52.061Z,100898.53
2022-09-01T00:50:22.237Z,100896.84
2022-09-01T00:52:55.763Z,100902.72
2022-09-01T00:55:27.917Z,100909.19
2022-09-01T00:57:56.633Z,100899.03
2022-09-01T01:00:27.724Z,100892.09
2022-09-01T01:02:56.798Z,100890.81
2022-09-01T01:05:32.983Z,100892.47
2022-09-01T01:08:08.192Z,100898.81
2022-09-01T01:10:39.492Z,100890.97
2022-09-01T01:13:10.258Z,100890.09
2022-09-01T01:15:39.099Z,100891.81
2022-09-01T01:18:07.144Z,100884.63
2022-09-01T01:20:53.121Z,100885.78
2022-09-01T01:23:27.875Z,100883.09
2022-09-01T01:25:59.805Z,100879.44
2022-09-01T01:28:32.145Z,100879.63
2022-09-01T01:31:06.149Z,100880.16
2022-09-01T01:33:42.982Z,100874.97
2022-09-01T01:36:14.270Z,100874.28
2022-09-01T01:38:43.950Z,100876.97
2022-09-01T01:41:14.915Z,100875.28
2022-09-01T01:43:43.301Z,100874.59
2022-09-01T01:46:14.381Z,100877.78
2022-09-01T01:48:43.815Z,100870.94
2022-09-01T01:51:13.968Z,100869.47
2022-09-01T01:53:52.517Z,100867.50
2022-09-01T01:56:25.574Z,100866.19
2022-09-01T01:58:54.659Z,100862.72
2022-09-01T02:01:25.252Z,100858.25
2022-09-01T02:03:54.757Z,100866.25
2022-09-01T02:06:24.889Z,100860.59
2022-09-01T02:08:58.054Z,100856.56
2022-09-01T02:11:27.671Z,100858.38
2022-09-01T02:13:57.713Z,100853.22
2022-09-01T02:16:28.206Z,100854.72
2022-09-01T02:18:57.430Z,100858.53
2022-09-01T02:21:27.063Z,100855.06
2022-09-01T02:24:01.429Z,100858.38
2022-09-01T02:26:37.423Z,100856.09
2022-09-01T02:29:17.871Z,100853.25
2022-09-01T02:31:48.340Z,100845.91
2022-09-01T02:34:17.146Z,100851.25
2022-09-01T02:36:51.892Z,100853.22
2022-09-01T02:39:26.528Z,100850.34
2022-09-01T02:41:56.757Z,100842.50
2022-09-01T02:44:29.195Z,100851.81
2022-09-01T02:46:58.761Z,100851.31
2022-09-01T02:49:29.925Z,100848.25
2022-09-01T02:52:01.821Z,100849.41
2022-09-01T02:54:32.373Z,100851.06
2022-09-01T02:57:03.143Z,100849.78
2022-09-01T02:59:32.045Z,100850.06
2022-09-01T03:02:02.642Z,100851.75
2022-09-01T03:04:35.179Z,100846.75
2022-09-01T03:07:04.406Z,100846.88
2022-09-01T03:09:33.727Z,100849.22
2022-09-01T03:12:07.101Z,100843.34
2022-09-01T03:14:35.661Z,100843.19
2022-09-01T03:17:03.699Z,100840.50
2022-09-01T03:19:43.751Z,100843.19
2022-09-01T03:22:12.486Z,100837.19
2022-09-01T03:24:40.735Z,100838.31
2022-09-01T03:27:11.673Z,100840.84
2022-09-01T03:29:39.675Z,100834.97
2022-09-01T03:32:08.423Z,100841.22
2022-09-01T03:34:37.037Z,100841.84
2022-09-01T03:37:07.401Z,100845.03
2022-09-01T03:39:36.650Z,100843.03
2022-09-01T03:42:04.877Z,100843.34
2022-09-01T03:44:40.165Z,100844.19
2022-09-01T03:47:12.211Z,100842.50
2022-09-01T03:49:40.502Z,100835.66
2022-09-01T03:52:08.889Z,100842.97
2022-09-01T03:54:37.220Z,100843.13
2022-09-01T03:57:10.106Z,100841.31
2022-09-01T03:59:45.249Z,100842.31
2022-09-01T04:02:15.174Z,100843.72
2022-09-01T04:04:43.268Z,100851.06
2022-09-01T04:07:15.537Z,100841.53
2022-09-01T04:09:47.350Z,100843.06
2022-09-01T04:12:17.168Z,100845.06
2022-09-01T04:14:50.457Z,100839.41
2022-09-01T04:17:35.739Z,100842.25
2022-09-01T04:20:09.043Z,100846.34
2022-09-01T04:22:38.159Z,100845.00
2022-09-01T04:25:06.803Z,100851.13
2022-09-01T04:27:40.780Z,100844.59
2022-09-01T04:30:15.652Z,100851.59
2022-09-01T04:32:47.616Z,100846.13
2022-09-01T04:35:17.586Z,100846.66
2022-09-01T04:37:50.095Z,100850.84
2022-09-01T04:40:18.676Z,100846.66
2022-09-01T04:42:48.719Z,100842.69
2022-09-01T04:45:25.205Z,100845.34
2022-09-01T04:47:53.973Z,100855.19
2022-09-01T04:50:23.195Z,100857.31
2022-09-01T04:53:16.031Z,100848.78
2022-09-01T04:55:49.846Z,100851.31
2022-09-01T04:58:23.285Z,100851.31
2022-09-01T05:00:56.936Z,100847.94
2022-09-01T05:03:25.305Z,100857.91
2022-09-01T05:06:15.629Z,100855.25
2022-09-01T05:08:52.117Z,100860.25
2022-09-01T05:11:40.015Z,100866.97
2022-09-01T05:14:19.082Z,100862.03
2022-09-01T05:16:49.917Z,100857.22
2022-09-01T05:19:20.905Z,100865.75
2022-09-01T05:21:49.745Z,100865.75
2022-09-01T05:24:21.667Z,100874.25
2022-09-01T05:26:50.774Z,100869.09
2022-09-01T05:29:21.075Z,100867.41
2022-09-01T05:31:52.681Z,100858.09
2022-09-01T05:34:26.953Z,100869.75
2022-09-01T05:36:57.931Z,100871.28
2022-09-01T05:39:26.799Z,100865.34
2022-09-01T05:41:56.032Z,100867.25
2022-09-01T05:44:24.182Z,100856.69
2022-09-01T05:46:59.686Z,100859.88
2022-09-01T05:49:33.130Z,100859.22
2022-09-01T05:52:04.392Z,100862.94
2022-09-01T05:54:33.825Z,100868.97
2022-09-01T05:57:30.379Z,100871.09
2022-09-01T05:59:55.882Z,100868.44
2022-09-01T06:02:28.861Z,100872.44
2022-09-01T06:05:01.132Z,100872.81
2022-09-01T06:07:33.888Z,100868.50
2022-09-01T06:10:05.668Z,100871.16
2022-09-01T06:12:34.355Z,100877.69
2022-09-01T06:15:02.455Z,100870.56
2022-09-01T06:17:35.258Z,100876.47
2022-09-01T06:20:10.470Z,100878.84
2022-09-01T06:22:41.002Z,100874.75
2022-09-01T06:25:10.715Z,100877.31
2022-09-01T06:27:44.401Z,100872.69
2022-09-01T06:30:20.112Z,100881.44
2022-09-01T06:33:02.365Z,100881.44
2022-09-01T06:35:35.051Z,100880.25
2022-09-01T06:38:04.838Z,100885.66
2022-09-01T06:40:42.738Z,100881.34
2022-09-01T06:43:17.354Z,100878.69
2022-09-01T06:45:54.298Z,100877.69
2022-09-01T06:48:25.698Z,100871.84
2022-09-01T06:51:21.070Z,100874.88
2022-09-01T06:53:59.527Z,100877.88
2022-09-01T06:56:33.914Z,100884.53
2022-09-01T06:59:10.029Z,100886.06
2022-09-01T07:01:39.527Z,100893.94
2022-09-01T07:04:12.836Z,100889.94
2022-09-01T07:10:21.028Z,100896.13
2022-09-01T07:13:08.979Z,100899.13
2022-09-01T07:18:30.819Z,100899.28
2022-09-01T07:21:36.307Z,100902.47
2022-09-01T07:24:10.485Z,100899.78
2022-09-01T07:26:48.533Z,100902.28
2022-09-01T07:29:19.940Z,100905.28
2022-09-01T07:31:49.636Z,100899.28
2022-09-01T07:42:30.043Z,100894.97
2022-09-01T07:43:09.396Z,100904.06
2022-09-01T07:46:36.294Z,100901.53
2022-09-01T07:51:38.040Z,100905.50
2022-09-01T07:54:08.739Z,100911.81
2022-09-01T07:56:40.078Z,100912.63
2022-09-01T07:59:12.745Z,100913.06
2022-09-01T08:01:51.266Z,100915.53
2022-09-01T08:04:22.962Z,100921.16
2022-09-01T08:06:55.830Z,100920.13
2022-09-01T08:09:37.975Z,100919.28
2022-09-01T08:12:09.168Z,100917.72
2022-09-01T08:14:46.660Z,100927.25
2022-09-01T08:17:18.193Z,100918.75
2022-09-01T08:20:08.484Z,100916.38
2022-09-01T08:22:52.629Z,100923.06
2022-09-01T08:25:27.151Z,100909.25
2022-09-01T08:28:00.360Z,100915.72
2022-09-01T08:30:30.004Z,100925.28
2022-09-01T08:32:58.380Z,100923.06
2022-09-01T08:35:26.999Z,100918.19
2022-09-01T08:37:55.322Z,100915.78
2022-09-01T08:40:24.581Z,100920.63
2022-09-01T08:43:06.149Z,100913.19
2022-09-01T08:45:43.389Z,100912.75
2022-09-01T08:51:20.061Z,100907.88
2022-09-01T08:54:11.883Z,100908.72
2022-09-01T08:56:43.953Z,100909.44
2022-09-01T08:59:16.214Z,100899.81
2022-09-01T09:02:28.057Z,100902.75
2022-09-01T09:05:15.603Z,100905.34
2022-09-01T09:08:07.672Z,100903.81
2022-09-01T09:10:43.635Z,100906.75
2022-09-01T09:13:18.469Z,100904.78
2022-09-01T09:16:06.965Z,100905.59
2022-09-01T09:18:54.840Z,100897.88
2022-09-01T09:21:27.876Z,100892.59
2022-09-01T09:24:08.232Z,100891.69
2022-09-01T09:26:43.490Z,100900.84
2022-09-01T09:29:11.665Z,100892.22
2022-09-01T09:31:45.933Z,100886.09
2022-09-01T09:34:19.597Z,100888.00
2022-09-01T09:36:53.880Z,100882.69
2022-09-01T09:39:23.539Z,100878.34
2022-09-01T09:42:09.359Z,100877.41
2022-09-01T09:44:44.629Z,100881.59
2022-09-01T09:47:43.478Z,100879.75
2022-09-01T09:50:20.218Z,100872.28
2022-09-01T09:52:49.590Z,100877.09
2022-09-01T09:55:27.051Z,100867.03
2022-09-01T09:58:00.067Z,100868.09
2022-09-01T10:00:34.055Z,100862.72
2022-09-01T10:03:08.864Z,100864.53
2022-09-01T10:05:43.209Z,100858.66
2022-09-01T10:08:14.852Z,100861.78
2022-09-01T10:10:45.707Z,100856.78
2022-09-01T10:13:27.531Z,100852.84
2022-09-01T10:15:59.608Z,100846.59
2022-09-01T10:18:36.245Z,100854.84
2022-09-01T10:21:08.981Z,100848.97
2022-09-01T10:23:38.762Z,100858.81
2022-09-01T10:26:11.562Z,100854.88
2022-09-01T10:28:50.643Z,100855.06
2022-09-01T10:31:19.960Z,100853.06
2022-09-01T10:33:50.823Z,100848.59
2022-09-01T10:36:24.683Z,100842.53
2022-09-01T10:38:58.762Z,100840.88
2022-09-01T10:41:53.334Z,100843.19
2022-09-01T10:44:33.802Z,100834.53
2022-09-01T10:47:06.164Z,100843.91
2022-09-01T10:50:01.795Z,100840.63
2022-09-01T10:53:01.027Z,100844.00
2022-09-01T10:55:36.547Z,100844.06
2022-09-01T11:01:53.685Z,100836.97
2022-09-01T11:04:24.275Z,100830.94
2022-09-01T11:07:13.894Z,100834.47
2022-09-01T11:09:45.447Z,100828.88
2022-09-01T11:12:28.845Z,100827.06
2022-09-01T11:14:59.979Z,100823.56
2022-09-01T11:17:31.894Z,100826.25
2022-09-01T11:20:10.207Z,100822.91
2022-09-01T11:22:41.687Z,100822.53
2022-09-01T11:25:41.993Z,100823.53
2022-09-01T11:28:36.283Z,100812.72
2022-09-01T11:31:17.716Z,100813.16
2022-09-01T11:33:54.291Z,100811.69
2022-09-01T11:36:29.662Z,100813.56
2022-09-01T11:39:05.537Z,100813.13
2022-09-01T11:41:57.564Z,100806.88
2022-09-01T11:44:37.375Z,100803.53
2022-09-01T11:47:13.592Z,100798.09
2022-09-01T11:49:51.526Z,100792.00
2022-09-01T11:52:21.919Z,100791.97
2022-09-01T11:54:51.109Z,100786.78
2022-09-01T11:57:26.705Z,100792.84
2022-09-01T11:59:56.357Z,100782.03
2022-09-01T12:02:27.860Z,100777.66
2022-09-01T12:04:56.977Z,100786.38
2022-09-01T12:07:30.872Z,100777.47
2022-09-01T12:09:59.265Z,100776.63
2022-09-01T12:12:33.025Z,100783.72
2022-09-01T12:15:06.769Z,100777.69
2022-09-01T12:17:35.450Z,100776.03
2022-09-01T12:20:29.649Z,100780.22
2022-09-01T12:22:59.082Z,100768.16
2022-09-01T12:25:29.694Z,100762.81
2022-09-01T12:28:01.316Z,100767.38
2022-09-01T12:30:30.139Z,100758.22
2022-09-01T12:35:48.586Z,100755.66
2022-09-01T12:38:30.140Z,100757.31
2022-09-01T12:40:59.032Z,100748.78
2022-09-01T12:43:34.919Z,100747.75
2022-09-01T12:46:06.406Z,100747.31
2022-09-01T12:48:35.736Z,100740.22
2022-09-01T12:51:09.446Z,100736.88
2022-09-01T12:53:37.644Z,100734.56
2022-09-01T12:56:29.758Z,100725.59
2022-09-01T12:59:16.025Z,100728.44
2022-09-01T13:01:46.119Z,100727.19
2022-09-01T13:04:26.447Z,100725.78
2022-09-01T13:06:56.628Z,100720.50
2022-09-01T13:09:25.672Z,100715.28
2022-09-01T13:12:09.184Z,100720.03
2022-09-01T13:14:40.570Z,100719.66
2022-09-01T13:17:14.062Z,100710.00
2022-09-01T13:19:44.634Z,100716.41
2022-09-01T13:22:12.586Z,100708.09
2022-09-01T13:24:40.895Z,100709.56
2022-09-01T13:27:24.490Z,100712.06
2022-09-01T13:29:54.450Z,100706.38
2022-09-01T13:32:24.417Z,100706.25
2022-09-01T13:34:54.924Z,100711.22
2022-09-01T13:37:24.521Z,100701.00
2022-09-01T13:39:52.569Z,100704.97
2022-09-01T13:42:20.883Z,100704.53
2022-09-01T13:44:52.616Z,100709.09
2022-09-01T13:47:29.478Z,100706.75
2022-09-01T13:50:07.924Z,100704.53
2022-09-01T13:52:38.573Z,100697.59
2022-09-01T13:55:08.586Z,100696.31
2022-09-01T13:57:37.038Z,100694.25
2022-09-01T14:00:08.706Z,100701.69
2022-09-01T14:02:42.978Z,100687.94
2022-09-01T14:05:11.011Z,100691.03
2022-09-01T14:07:38.910Z,100698.84
2022-09-01T14:10:08.833Z,100695.72
2022-09-01T14:12:37.367Z,100690.97
2022-09-01T14:15:11.999Z,100694.97
2022-09-01T14:17:43.108Z,100682.94
2022-09-01T14:20:14.613Z,100686.16
2022-09-01T14:22:42.852Z,100695.13
2022-09-01T14:25:14.487Z,100686.97
2022-09-01T14:27:44.714Z,100682.78
2022-09-01T14:30:17.343Z,100671.78
2022-09-01T14:32:47.377Z,100676.75
2022-09-01T14:35:16.937Z,100680.06
2022-09-01T14:37:45.572Z,100682.63
2022-09-01T14:40:16.629Z,100678.00
2022-09-01T14:42:48.984Z,100680.13
2022-09-01T14:45:18.558Z,100674.94
2022-09-01T14:47:48.644Z,100674.41
2022-09-01T14:50:21.664Z,100669.53
2022-09-01T14:52:53.946Z,100661.94
2022-09-01T14:55:27.360Z,100677.88
2022-09-01T14:57:56.275Z,100671.50
2022-09-01T15:00:26.109Z,100667.50
2022-09-01T15:02:56.669Z,100661.38
2022-09-01T15:05:25.831Z,100656.72
2022-09-01T15:07:54.811Z,100651.50
2022-09-01T15:10:26.097Z,100647.06
2022-09-01T15:12:55.904Z,100646.41
2022-09-01T15:15:24.730Z,100647.16
2022-09-01T15:17:54.859Z,100643.19
2022-09-01T15:20:43.575Z,100640.63
2022-09-01T15:23:12.369Z,100631.50
2022-09-01T15:25:40.598Z,100628.69
2022-09-01T15:28:09.161Z,100626.28
2022-09-01T15:30:37.356Z,100630.53
2022-09-01T15:33:07.836Z,100626.06
2022-09-01T15:35:37.131Z,100630.16
2022-09-01T15:38:06.970Z,100624.69
2022-09-01T15:40:35.774Z,100621.63
2022-09-01T15:43:06.206Z,100623.72
2022-09-01T15:45:34.555Z,100625.06
2022-09-01T15:48:02.948Z,100620.22
2022-09-01T15:50:32.369Z,100626.88
2022-09-01T15:53:02.848Z,100625.13
2022-09-01T15:55:38.052Z,100619.84
2022-09-01T15:58:06.152Z,100620.94
2022-09-01T16:00:34.920Z,100630.19
2022-09-01T16:03:03.034Z,100626.25
2022-09-01T16:05:34.358Z,100624.69
2022-09-01T16:08:04.773Z,100628.28
2022-09-01T16:10:35.079Z,100619.75
2022-09-01T16:13:04.588Z,100618.72
2022-09-01T16:15:33.309Z,100623.59
2022-09-01T16:18:21.874Z,100615.16
2022-09-01T16:21:02.684Z,100618.59
2022-09-01T16:23:41.425Z,100615.38
2022-09-01T16:26:11.733Z,100614.91
2022-09-01T16:28:40.331Z,100612.44
2022-09-01T16:31:13.659Z,100614.47
2022-09-01T16:33:48.763Z,100615.22
2022-09-01T16:36:34.684Z,100617.00
2022-09-01T16:39:14.814Z,100623.88
2022-09-01T16:41:54.524Z,100612.75
2022-09-01T16:44:38.367Z,100614.03
2022-09-01T16:47:25.501Z,100612.44
2022-09-01T16:50:05.174Z,100613.06
2022-09-01T16:52:44.294Z,100608.84
2022-09-01T16:55:22.547Z,100607.06
2022-09-01T16:57:59.465Z,100607.97
2022-09-01T17:00:39.153Z,100604.75
2022-09-01T17:03:17.308Z,100604.97
2022-09-01T17:05:54.663Z,100602.25
2022-09-01T17:08:26.544Z,100598.34
2022-09-01T17:10:59.446Z,100603.91
2022-09-01T17:13:36.323Z,100606.78
2022-09-01T17:16:07.885Z,100606.28
2022-09-01T17:18:40.756Z,100603.72
2022-09-01T17:21:14.762Z,100608.06
2022-09-01T17:23:51.361Z,100604.06
2022-09-01T17:26:24.628Z,100602.03
2022-09-01T17:28:56.620Z,100606.72
2022-09-01T17:31:46.129Z,100608.06
2022-09-01T17:34:26.536Z,100607.56
2022-09-01T17:37:06.160Z,100611.84
2022-09-01T17:39:50.605Z,100616.84
2022-09-01T17:42:30.151Z,100612.78
2022-09-01T17:45:10.059Z,100620.69
2022-09-01T17:47:51.150Z,100616.59
2022-09-01T17:50:24.144Z,100610.84
2022-09-01T17:53:02.106Z,100619.84
2022-09-01T17:55:46.596Z,100617.44
2022-09-01T17:58:31.275Z,100620.97
2022-09-01T18:01:03.053Z,100616.22
2022-09-01T18:04:05.977Z,100612.72
2022-09-01T18:06:49.318Z,100623.97
2022-09-01T18:09:21.479Z,100625.00
2022-09-01T18:11:54.804Z,100619.59
2022-09-01T18:14:28.461Z,100617.72
2022-09-01T18:17:01.738Z,100623.28
2022-09-01T18:19:36.971Z,100629.06
2022-09-01T18:22:09.483Z,100637.16
2022-09-01T18:24:48.905Z,100637.94
2022-09-01T18:27:18.685Z,100648.22
2022-09-01T18:29:48.863Z,100640.34
2022-09-01T18:32:27.483Z,100648.78
2022-09-01T18:35:13.283Z,100649.34
2022-09-01T18:37:57.999Z,100655.69
2022-09-01T18:40:31.611Z,100655.22
2022-09-01T18:43:14.091Z,100651.88
2022-09-01T18:45:49.660Z,100653.88
2022-09-01T18:48:28.354Z,100653.78
2022-09-01T18:51:03.327Z,100653.09
2022-09-01T18:53:39.817Z,100660.44
2022-09-01T18:56:20.722Z,100658.75
2022-09-01T18:59:11.366Z,100661.16
2022-09-01T19:01:50.290Z,100671.00
2022-09-01T19:04:25.264Z,100672.97
2022-09-01T19:07:05.089Z,100671.63
2022-09-01T19:09:36.119Z,100668.44
2022-09-01T19:12:16.958Z,100662.72
2022-09-01T19:14:56.608Z,100671.09
2022-09-01T19:17:46.105Z,100676.19
2022-09-01T19:20:23.400Z,100681.69
2022-09-01T19:22:59.075Z,100679.91
2022-09-01T19:25:37.468Z,100673.66
2022-09-01T19:28:14.105Z,100678.09
2022-09-01T19:30:47.980Z,100683.84
2022-09-01T19:33:24.357Z,100683.84
2022-09-01T19:35:56.792Z,100684.22
2022-09-01T19:38:28.932Z,100685.31
2022-09-01T19:41:09.934Z,100692.25
2022-09-01T19:43:42.902Z,100687.00
2022-09-01T19:46:25.369Z,100688.56
2022-09-01T19:48:59.210Z,100695.22
2022-09-01T19:51:31.762Z,100695.19
2022-09-01T19:54:04.561Z,100694.25
2022-09-01T19:56:39.791Z,100694.25
2022-09-01T19:59:18.100Z,100696.00
2022-09-01T20:01:59.334Z,100703.56
2022-09-01T20:04:38.979Z,100700.31
2022-09-01T20:07:11.890Z,100704.25
2022-09-01T20:09:46.239Z,100691.91
2022-09-01T20:12:23.441Z,100695.13
2022-09-01T20:15:04.207Z,100704.34
2022-09-01T20:17:41.335Z,100694.41
2022-09-01T20:20:12.401Z,100695.44
2022-09-01T20:22:51.171Z,100698.50
2022-09-01T20:25:22.309Z,100703.19
2022-09-01T20:27:55.465Z,100705.88
2022-09-01T20:30:26.026Z,100707.53
2022-09-01T20:33:02.788Z,100701.72
2022-09-01T20:35:39.803Z,100711.94
2022-09-01T20:38:31.057Z,100707.47
2022-09-01T20:41:05.443Z,100710.50
2022-09-01T20:43:40.387Z,100713.72
2022-09-01T20:46:08.839Z,100710.34
2022-09-01T20:48:41.565Z,100713.56
2022-09-01T20:51:15.041Z,100711.09
2022-09-01T20:53:55.376Z,100716.09
2022-09-01T20:56:29.404Z,100713.41
2022-09-01T20:59:01.849Z,100714.75
2022-09-01T21:01:36.638Z,100716.78
2022-09-01T21:04:20.227Z,100721.50
2022-09-01T21:06:54.448Z,100723.97
2022-09-01T21:09:33.448Z,100723.00
2022-09-01T21:12:08.805Z,100721.16
2022-09-01T21:14:48.339Z,100715.66
2022-09-01T21:17:25.865Z,100714.38
2022-09-01T21:20:07.827Z,100725.59
2022-09-01T21:22:35.957Z,100715.91
2022-09-01T21:25:04.585Z,100718.22
2022-09-01T21:27:38.057Z,100721.59
2022-09-01T21:30:09.309Z,100728.63
2022-09-01T21:32:39.687Z,100726.66
2022-09-01T21:35:13.017Z,100723.31
2022-09-01T21:37:41.197Z,100718.97
2022-09-01T21:40:11.207Z,100717.47
2022-09-01T21:42:45.487Z,100716.66
2022-09-01T21:45:15.514Z,100721.53
2022-09-01T21:47:45.961Z,100717.50
2022-09-01T21:50:17.638Z,100716.69
2022-09-01T21:52:48.394Z,100714.53
2022-09-01T21:55:23.049Z,100716.66
2022-09-01T21:57:51.947Z,100712.13
2022-09-01T22:00:24.946Z,100713.31
2022-09-01T22:02:54.605Z,100714.53
2022-09-01T22:05:25.101Z,100709.00
2022-09-01T22:07:54.858Z,100711.06
2022-09-01T22:10:25.342Z,100708.06
2022-09-01T22:12:54.227Z,100709.06
2022-09-01T22:15:24.201Z,100711.25
2022-09-01T22:17:53.142Z,100705.41
2022-09-01T22:20:24.628Z,100702.75
2022-09-01T22:22:56.669Z,100702.75
2022-09-01T22:25:25.280Z,100697.22
2022-09-01T22:27:53.264Z,100696.06
2022-09-01T22:30:24.064Z,100692.06
2022-09-01T22:32:52.020Z,100694.41
2022-09-01T22:35:19.974Z,100695.91
2022-09-01T22:37:49.521Z,100700.56
2022-09-01T22:40:18.444Z,100693.06
2022-09-01T22:42:51.104Z,100700.56
2022-09-01T22:45:19.299Z,100695.94
2022-09-01T22:47:47.250Z,100689.75
2022-09-01T22:50:15.329Z,100695.94
2022-09-01T22:52:45.751Z,100695.06
2022-09-01T22:55:15.123Z,100695.44
2022-09-01T22:57:43.657Z,100687.56
2022-09-01T23:00:12.695Z,100695.44
2022-09-01T23:02:41.097Z,100695.44
2022-09-01T23:05:09.769Z,100695.44
2022-09-01T23:07:39.797Z,100689.91
2022-09-01T23:10:09.384Z,100691.75
2022-09-01T23:12:38.776Z,100692.91
2022-09-01T23:15:09.238Z,100684.06
2022-09-01T23:17:37.849Z,100690.25
2022-09-01T23:20:12.477Z,100682.38
2022-09-01T23:22:41.018Z,100686.72
2022-09-01T23:25:10.378Z,100683.41
2022-09-01T23:27:40.213Z,100677.56
2022-09-01T23:30:11.457Z,100680.59
2022-09-01T23:32:39.475Z,100673.53
2022-09-01T23:35:09.302Z,100677.06
2022-09-01T23:37:37.308Z,100677.06
2022-09-01T23:40:07.691Z,100675.56
2022-09-01T23:42:36.044Z,100674.25
2022-09-01T23:45:06.295Z,100676.91
2022-09-01T23:47:36.579Z,100670.88
2022-09-01T23:50:05.340Z,100672.91
2022-09-01T23:52:33.430Z,100676.72
2022-09-01T23:55:01.529Z,100676.22
2022-09-01T23:57:29.657Z,100671.09
2022-09-01T23:59:57.911Z,100682.91
